createdAt,value
2022-08-30T00:00:34.261Z,64.93
2022-08-30T00:03:03.856Z,65.10
2022-08-30T00:05:32.103Z,65.50
2022-08-30T00:08:00.313Z,65.03
2022-08-30T00:10:30.072Z,64.23
2022-08-30T00:12:59.289Z,65.60
2022-08-30T00:15:29.267Z,63.80
2022-08-30T00:17:57.819Z,65.20
2022-08-30T00:20:30.891Z,65.37
2022-08-30T00:22:58.722Z,66.70
2022-08-30T00:25:26.694Z,64.07
2022-08-30T00:27:54.821Z,64.80
2022-08-30T00:30:22.805Z,66.47
2022-08-30T00:32:51.101Z,64.27
2022-08-30T00:35:20.597Z,67.10
2022-08-30T00:37:50.808Z,66.90
2022-08-30T00:40:20.374Z,65.80
2022-08-30T00:43:08.836Z,64.33
2022-08-30T00:45:41.877Z,65.80
2022-08-30T00:48:09.892Z,63.93
2022-08-30T00:50:41.044Z,70.83
2022-08-30T00:53:14.092Z,64.17
2022-08-30T00:55:43.155Z,67.03
2022-08-30T00:58:16.690Z,65.20
2022-08-30T01:00:45.101Z,66.60
2022-08-30T01:03:12.721Z,65.43
2022-08-30T01:05:40.608Z,67.20
2022-08-30T01:08:08.394Z,62.60
2022-08-30T01:10:38.072Z,63.97
2022-08-30T01:13:06.394Z,64.30
2022-08-30T01:15:34.698Z,65.97
2022-08-30T01:18:03.861Z,64.93
2022-08-30T01:20:41.842Z,65.77
2022-08-30T01:23:13.924Z,66.63
2022-08-30T01:25:45.124Z,66.10
2022-08-30T01:28:16.605Z,65.77
2022-08-30T01:30:44.548Z,70.60
2022-08-30T01:33:13.111Z,65.20
2022-08-30T01:35:48.902Z,66.33
2022-08-30T01:38:19.666Z,67.80
2022-08-30T01:40:47.305Z,67.80
2022-08-30T01:43:16.842Z,66.30
2022-08-30T01:45:44.934Z,64.00
2022-08-30T01:48:13.261Z,65.47
2022-08-30T01:50:41.744Z,66.13
2022-08-30T01:53:13.241Z,65.10
2022-08-30T01:55:43.175Z,68.40
2022-08-30T01:58:11.226Z,65.97
2022-08-30T02:00:39.150Z,65.80
2022-08-30T02:03:08.109Z,65.77
2022-08-30T02:05:36.169Z,66.03
2022-08-30T02:08:04.174Z,66.03
2022-08-30T02:10:31.966Z,64.10
2022-08-30T02:13:00.954Z,67.33
2022-08-30T02:15:29.053Z,65.03
2022-08-30T02:17:56.632Z,65.17
2022-08-30T02:20:24.507Z,67.30
2022-08-30T02:22:52.120Z,65.37
2022-08-30T02:25:21.185Z,66.17
2022-08-30T02:27:49.200Z,68.40
2022-08-30T02:30:18.165Z,67.20
2022-08-30T02:32:45.738Z,66.50
2022-08-30T02:35:13.542Z,66.97
2022-08-30T02:37:41.197Z,66.43
2022-08-30T02:40:10.194Z,64.70
2022-08-30T02:42:37.838Z,65.90
2022-08-30T02:45:06.556Z,64.70
2022-08-30T02:47:35.529Z,64.77
2022-08-30T02:50:03.658Z,63.50
2022-08-30T02:52:31.561Z,67.30
2022-08-30T02:54:59.730Z,63.57
2022-08-30T02:57:27.342Z,63.77
2022-08-30T02:59:54.959Z,64.20
2022-08-30T03:02:23.147Z,64.20
2022-08-30T03:04:52.185Z,64.93
2022-08-30T03:07:20.265Z,67.13
2022-08-30T03:09:47.833Z,67.43
2022-08-30T03:12:15.484Z,66.60
2022-08-30T03:14:43.079Z,68.00
2022-08-30T03:17:15.739Z,70.33
2022-08-30T03:19:44.139Z,67.43
2022-08-30T03:22:13.294Z,67.73
2022-08-30T03:24:41.375Z,67.60
2022-08-30T03:27:08.976Z,67.40
2022-08-30T03:29:36.609Z,69.73
2022-08-30T03:32:05.126Z,69.80
2022-08-30T03:34:33.274Z,66.37
2022-08-30T03:37:01.324Z,73.13
2022-08-30T03:39:30.262Z,71.97
2022-08-30T03:41:57.865Z,66.43
2022-08-30T03:44:26.858Z,71.20
2022-08-30T03:46:55.251Z,65.90
2022-08-30T03:49:24.070Z,67.10
2022-08-30T03:51:52.186Z,66.83
2022-08-30T03:54:19.941Z,69.83
2022-08-30T03:56:48.815Z,70.40
2022-08-30T03:59:16.743Z,62.40
2022-08-30T04:01:45.735Z,69.73
2022-08-30T04:04:17.418Z,70.70
2022-08-30T04:06:47.692Z,65.20
2022-08-30T04:09:15.268Z,72.33
2022-08-30T04:11:42.848Z,73.03
2022-08-30T04:14:11.741Z,69.97
2022-08-30T04:16:39.480Z,67.53
2022-08-30T04:19:07.085Z,68.93
2022-08-30T04:21:35.075Z,71.43
2022-08-30T04:24:10.372Z,65.60
2022-08-30T04:26:38.003Z,72.90
2022-08-30T04:29:05.654Z,70.27
2022-08-30T04:31:34.847Z,70.63
2022-08-30T04:34:02.435Z,71.87
2022-08-30T04:36:30.287Z,69.10
2022-08-30T04:38:57.838Z,71.63
2022-08-30T04:41:25.389Z,70.00
2022-08-30T04:43:52.981Z,69.43
2022-08-30T04:46:21.035Z,69.43
2022-08-30T04:48:50.466Z,69.33
2022-08-30T04:51:18.995Z,65.33
2022-08-30T04:53:46.918Z,69.53
2022-08-30T04:56:17.601Z,69.23
2022-08-30T04:58:45.419Z,69.90
2022-08-30T05:01:15.087Z,72.20
2022-08-30T05:03:46.655Z,68.53
2022-08-30T05:06:16.097Z,66.73
2022-08-30T05:08:46.280Z,65.60
2022-08-30T05:11:15.428Z,66.07
2022-08-30T05:13:43.576Z,65.23
2022-08-30T05:16:13.395Z,64.00
2022-08-30T05:18:41.109Z,66.63
2022-08-30T05:21:11.031Z,68.10
2022-08-30T05:23:41.332Z,67.17
2022-08-30T05:26:11.397Z,64.00
2022-08-30T05:28:39.441Z,70.83
2022-08-30T05:31:15.217Z,75.53
2022-08-30T05:33:43.921Z,70.10
2022-08-30T05:36:13.593Z,68.83
2022-08-30T05:38:43.593Z,68.77
2022-08-30T05:41:12.663Z,68.67
2022-08-30T05:43:40.884Z,65.73
2022-08-30T05:46:28.345Z,67.23
2022-08-30T05:56:57.698Z,71.60
2022-08-30T06:03:13.689Z,67.10
2022-08-30T06:16:46.248Z,68.80
2022-08-30T06:26:44.950Z,66.00
2022-08-30T06:33:43.443Z,64.87
2022-08-30T06:37:03.179Z,63.57
2022-08-30T06:47:24.913Z,68.20
2022-08-30T06:57:08.654Z,64.30
2022-08-30T07:04:01.191Z,64.80
2022-08-30T07:49:32.811Z,73.23
2022-08-30T07:53:00.573Z,71.20
2022-08-30T08:02:57.759Z,69.73
2022-08-30T08:23:43.395Z,68.37
2022-08-30T08:30:12.896Z,70.43
2022-08-30T08:32:56.306Z,67.40
2022-08-30T08:36:29.027Z,67.80
2022-08-30T08:43:30.379Z,66.90
2022-08-30T08:58:00.976Z,69.07
2022-08-30T09:04:54.895Z,69.20
2022-08-30T09:11:52.591Z,63.77
2022-08-30T09:15:08.357Z,66.57
2022-08-30T09:18:01.423Z,62.93
2022-08-30T09:24:28.514Z,66.03
2022-08-30T09:38:40.955Z,61.27
2022-08-30T09:42:09.249Z,67.77
2022-08-30T09:49:04.650Z,67.67
2022-08-30T10:27:11.587Z,64.37
2022-08-30T10:33:44.744Z,63.90
2022-08-30T10:40:56.347Z,65.13
2022-08-30T10:48:08.703Z,59.40
2022-08-30T10:58:51.084Z,63.70
2022-08-30T11:02:21.274Z,61.73
2022-08-30T11:33:49.192Z,64.90
2022-08-30T11:40:45.433Z,66.37
2022-08-30T11:45:55.068Z,62.03
2022-08-30T11:48:58.699Z,60.77
2022-08-30T11:59:47.378Z,63.53
2022-08-30T12:03:15.279Z,60.47
2022-08-30T12:16:55.119Z,59.47
2022-08-30T12:33:19.886Z,61.33
2022-08-30T12:44:21.723Z,59.83
2022-08-30T13:02:20.307Z,62.60
2022-08-30T13:13:01.963Z,63.70
2022-08-30T13:19:54.331Z,63.63
2022-08-30T13:27:03.023Z,57.10
2022-08-30T13:30:30.636Z,59.53
2022-08-30T13:33:13.570Z,57.43
2022-08-30T13:36:35.485Z,61.70
2022-08-30T13:40:08.259Z,60.50
2022-08-30T13:43:16.764Z,62.93
2022-08-30T13:53:54.890Z,59.83
2022-08-30T13:57:54.421Z,58.17
2022-08-30T14:00:47.405Z,60.43
2022-08-30T14:22:33.444Z,59.87
2022-08-30T14:25:47.152Z,58.60
2022-08-30T14:32:39.857Z,61.93
2022-08-30T14:42:03.442Z,61.17
2022-08-30T14:45:08.297Z,57.77
2022-08-30T15:14:04.587Z,60.10
2022-08-30T15:20:34.560Z,59.13
2022-08-30T15:23:02.425Z,57.57
2022-08-30T15:25:31.367Z,59.80
2022-08-30T15:27:58.913Z,61.60
2022-08-30T15:30:26.772Z,59.53
2022-08-30T15:32:54.325Z,59.00
2022-08-30T15:35:22.753Z,57.90
2022-08-30T15:37:50.429Z,58.43
2022-08-30T15:40:18.681Z,59.37
2022-08-30T15:42:47.610Z,60.30
2022-08-30T15:45:15.185Z,58.77
2022-08-30T15:47:45.784Z,60.50
2022-08-30T15:50:14.096Z,59.17
2022-08-30T15:53:36.155Z,61.07
2022-08-30T15:56:08.430Z,59.60
2022-08-30T15:58:42.482Z,58.73
2022-08-30T16:01:13.046Z,60.03
2022-08-30T16:03:41.815Z,58.93
2022-08-30T16:06:14.377Z,56.90
2022-08-30T16:08:42.433Z,62.37
2022-08-30T16:11:12.593Z,59.00
2022-08-30T16:13:42.351Z,59.17
2022-08-30T16:16:10.758Z,58.70
2022-08-30T16:18:39.989Z,57.60
2022-08-30T16:21:09.985Z,57.83
2022-08-30T16:23:39.498Z,58.47
2022-08-30T16:26:08.126Z,60.57
2022-08-30T16:28:38.326Z,60.43
2022-08-30T16:31:07.986Z,59.93
2022-08-30T16:33:37.977Z,59.63
2022-08-30T16:36:10.936Z,60.87
2022-08-30T16:38:40.021Z,61.70
2022-08-30T16:41:09.869Z,60.97
2022-08-30T16:43:39.797Z,62.90
2022-08-30T16:46:12.573Z,63.17
2022-08-30T16:48:41.103Z,61.43
2022-08-30T16:51:10.235Z,60.73
2022-08-30T16:53:38.981Z,58.83
2022-08-30T16:56:07.988Z,61.33
2022-08-30T16:58:35.607Z,60.40
2022-08-30T17:01:03.345Z,58.33
2022-08-30T17:03:32.442Z,62.73
2022-08-30T17:06:01.356Z,57.87
2022-08-30T17:08:31.554Z,60.47
2022-08-30T17:10:59.444Z,61.30
2022-08-30T17:13:27.805Z,62.03
2022-08-30T17:15:56.217Z,62.17
2022-08-30T17:18:24.486Z,59.80
2022-08-30T17:20:53.688Z,61.30
2022-08-30T17:23:22.344Z,59.77
2022-08-30T17:25:51.320Z,59.03
2022-08-30T17:28:19.143Z,60.97
2022-08-30T17:30:49.608Z,59.33
2022-08-30T17:33:18.984Z,58.63
2022-08-30T17:35:46.577Z,57.30
2022-08-30T17:38:17.919Z,58.33
2022-08-30T17:40:46.834Z,57.97
2022-08-30T17:43:14.437Z,58.87
2022-08-30T17:45:41.997Z,58.03
2022-08-30T17:48:09.413Z,60.63
2022-08-30T17:50:37.599Z,58.00
2022-08-30T17:53:05.485Z,59.07
2022-08-30T17:55:34.402Z,57.60
2022-08-30T17:58:02.569Z,60.03
2022-08-30T18:00:30.162Z,59.90
2022-08-30T18:02:57.855Z,60.97
2022-08-30T18:05:25.533Z,60.47
2022-08-30T18:07:53.205Z,60.90
2022-08-30T18:10:28.577Z,58.80
2022-08-30T18:13:03.308Z,59.23
2022-08-30T18:15:31.177Z,61.30
2022-08-30T18:17:58.710Z,63.10
2022-08-30T18:20:26.625Z,60.90
2022-08-30T18:22:54.437Z,61.70
2022-08-30T18:25:22.430Z,63.87
2022-08-30T18:30:41.474Z,61.03
2022-08-30T18:33:10.113Z,63.83
2022-08-30T18:35:42.945Z,61.23
2022-08-30T18:38:12.956Z,60.67
2022-08-30T18:40:42.370Z,63.23
2022-08-30T18:43:11.416Z,64.27
2022-08-30T18:45:44.907Z,62.90
2022-08-30T18:48:14.365Z,63.40
2022-08-30T18:50:43.108Z,61.07
2022-08-30T18:53:11.746Z,63.37
2022-08-30T18:55:39.448Z,63.10
2022-08-30T18:58:07.184Z,63.60
2022-08-30T19:00:35.104Z,63.20
2022-08-30T19:03:04.044Z,60.33
2022-08-30T19:05:32.336Z,61.57
2022-08-30T19:08:02.854Z,62.97
2022-08-30T19:10:33.676Z,59.10
2022-08-30T19:13:02.859Z,61.70
2022-08-30T19:15:34.036Z,60.50
2022-08-30T19:18:02.670Z,59.00
2022-08-30T19:20:46.002Z,63.80
2022-08-30T19:23:15.056Z,63.23
2022-08-30T19:25:43.398Z,64.03
2022-08-30T19:28:12.275Z,65.00
2022-08-30T19:30:40.178Z,62.13
2022-08-30T19:33:07.847Z,61.93
2022-08-30T19:35:39.135Z,63.60
2022-08-30T19:38:08.049Z,61.73
2022-08-30T19:40:35.668Z,63.17
2022-08-30T19:43:03.818Z,61.90
2022-08-30T19:45:32.284Z,64.80
2022-08-30T19:48:02.178Z,65.33
2022-08-30T19:50:29.743Z,63.87
2022-08-30T19:52:57.494Z,63.60
2022-08-30T19:55:31.289Z,62.67
2022-08-30T19:57:59.291Z,61.20
2022-08-30T20:00:27.339Z,64.63
2022-08-30T20:02:59.158Z,58.87
2022-08-30T20:05:27.236Z,60.87
2022-08-30T20:07:54.999Z,61.67
2022-08-30T20:10:28.018Z,61.57
2022-08-30T20:12:55.715Z,61.07
2022-08-30T20:15:23.708Z,62.20
2022-08-30T20:18:05.187Z,59.90
2022-08-30T20:20:36.075Z,59.63
2022-08-30T20:23:04.330Z,60.80
2022-08-30T20:24:28.160Z,63.90
2022-08-30T20:25:34.145Z,64.40
2022-08-30T20:28:01.717Z,60.90
2022-08-30T20:30:29.385Z,63.33
2022-08-30T20:32:57.261Z,64.67
2022-08-30T20:35:25.047Z,63.60
2022-08-30T20:37:52.626Z,64.37
2022-08-30T20:40:21.867Z,63.43
2022-08-30T20:42:51.795Z,65.93
2022-08-30T20:45:19.340Z,62.30
2022-08-30T20:47:46.877Z,63.90
2022-08-30T20:50:17.274Z,64.90
2022-08-30T20:52:45.338Z,63.03
2022-08-30T20:55:14.344Z,63.13
2022-08-30T20:57:41.873Z,65.33
2022-08-30T21:00:13.690Z,64.77
2022-08-30T21:02:46.988Z,66.03
2022-08-30T21:05:16.666Z,65.87
2022-08-30T21:07:45.595Z,63.40
2022-08-30T21:10:14.843Z,60.60
2022-08-30T21:12:42.920Z,63.50
2022-08-30T21:15:36.465Z,64.27
2022-08-30T21:18:00.757Z,59.93
2022-08-30T21:20:28.331Z,62.07
2022-08-30T21:22:55.899Z,61.17
2022-08-30T21:25:23.552Z,58.87
2022-08-30T21:27:53.112Z,60.67
2022-08-30T21:30:22.267Z,59.83
2022-08-30T21:32:49.795Z,60.40
2022-08-30T21:35:35.133Z,61.53
2022-08-30T21:38:04.295Z,67.03
2022-08-30T21:40:31.937Z,62.37
2022-08-30T21:43:05.022Z,66.83
2022-08-30T21:45:38.144Z,65.60
2022-08-30T21:48:06.171Z,61.00
2022-08-30T21:50:33.863Z,64.90
2022-08-30T21:53:01.680Z,63.93
2022-08-30T21:55:29.533Z,64.20
2022-08-30T21:57:57.098Z,66.13
2022-08-30T22:00:25.242Z,63.50
2022-08-30T22:02:55.004Z,67.73
2022-08-30T22:05:22.753Z,65.03
2022-08-30T22:07:50.506Z,64.20
2022-08-30T22:10:19.622Z,65.97
2022-08-30T22:12:47.692Z,67.00
2022-08-30T22:15:15.248Z,65.30
2022-08-30T22:17:44.226Z,64.30
2022-08-30T22:20:16.218Z,65.60
2022-08-30T22:22:46.220Z,66.33
2022-08-30T22:25:13.953Z,64.33
2022-08-30T22:27:41.486Z,66.87
2022-08-30T22:30:10.024Z,63.77
2022-08-30T22:32:38.544Z,65.43
2022-08-30T22:35:07.290Z,62.97
2022-08-30T22:37:36.159Z,66.90
2022-08-30T22:40:04.311Z,66.77
2022-08-30T22:42:31.888Z,65.30
2022-08-30T22:44:59.481Z,73.00
2022-08-30T22:47:27.174Z,63.70
2022-08-30T22:49:54.697Z,63.33
2022-08-30T22:52:25.601Z,64.07
2022-08-30T22:54:54.559Z,63.90
2022-08-30T22:57:22.067Z,67.13
2022-08-30T22:59:49.820Z,68.20
2022-08-30T23:02:17.601Z,65.97
2022-08-30T23:04:45.208Z,64.03
2022-08-30T23:07:12.746Z,66.57
2022-08-30T23:09:40.521Z,68.37
2022-08-30T23:12:09.595Z,66.70
2022-08-30T23:14:37.158Z,65.40
2022-08-30T23:17:04.811Z,67.07
2022-08-30T23:19:32.346Z,68.23
2022-08-30T23:21:59.885Z,66.70
2022-08-30T23:24:48.883Z,65.53
2022-08-30T23:27:35.959Z,67.57
2022-08-30T23:30:22.109Z,65.70
2022-08-30T23:33:07.384Z,66.00
2022-08-30T23:35:52.903Z,67.40
2022-08-30T23:38:37.697Z,65.87
2022-08-30T23:41:23.265Z,66.50
2022-08-30T23:44:20.421Z,65.50
2022-08-30T23:47:05.961Z,64.07
2022-08-30T23:49:51.381Z,67.40
2022-08-30T23:52:36.737Z,62.00
2022-08-30T23:55:23.178Z,68.17
2022-08-30T23:58:08.433Z,68.97
